sensor_id;sensor_type;location;lat;lon;timestamp;temperature;humidity
30764;DHT22;17497;51.476;7.770;2023-02-28T00:00:12;0.70;99.90
30764;DHT22;17497;51.476;7.770;2023-02-28T00:02:41;0.70;99.90
30764;DHT22;17497;51.476;7.770;2023-02-28T00:05:08;0.70;99.90
30764;DHT22;17497;51.476;7.770;2023-02-28T00:07:35;0.70;99.90
30764;DHT22;17497;51.476;7.770;2023-02-28T00:10:03;0.60;99.90
30764;DHT22;17497;51.476;7.770;2023-02-28T00:12:30;0.60;99.90
30764;DHT22;17497;51.476;7.770;2023-02-28T00:14:56;0.60;99.90
30764;DHT22;17497;51.476;7.770;2023-02-28T00:17:23;0.60;99.90
30764;DHT22;17497;51.476;7.770;2023-02-28T00:19:50;0.60;99.90
30764;DHT22;17497;51.476;7.770;2023-02-28T00:22:18;0.50;99.90
30764;DHT22;17497;51.476;7.770;2023-02-28T00:24:45;0.40;99.90
30764;DHT22;17497;51.476;7.770;2023-02-28T00:27:12;0.40;99.90
30764;DHT22;17497;51.476;7.770;2023-02-28T00:29:38;0.40;99.90
30764;DHT22;17497;51.476;7.770;2023-02-28T00:32:05;0.40;99.90
30764;DHT22;17497;51.476;7.770;2023-02-28T00:34:32;0.40;99.90
30764;DHT22;17497;51.476;7.770;2023-02-28T00:37:06;0.40;99.90
30764;DHT22;17497;51.476;7.770;2023-02-28T00:39:34;0.40;99.90
30764;DHT22;17497;51.476;7.770;2023-02-28T00:42:01;0.40;99.90
30764;DHT22;17497;51.476;7.770;2023-02-28T00:44:28;0.30;99.90
30764;DHT22;17497;51.476;7.770;2023-02-28T00:46:56;0.30;99.90
30764;DHT22;17497;51.476;7.770;2023-02-28T00:49:23;0.30;99.90
30764;DHT22;17497;51.476;7.770;2023-02-28T00:51:50;0.30;99.90
30764;DHT22;17497;51.476;7.770;2023-02-28T00:54:16;0.30;99.90
30764;DHT22;17497;51.476;7.770;2023-02-28T00:56:43;0.30;99.90
30764;DHT22;17497;51.476;7.770;2023-02-28T00:59:10;0.30;99.90
30764;DHT22;17497;51.476;7.770;2023-02-28T01:01:37;0.30;99.90
30764;DHT22;17497;51.476;7.770;2023-02-28T01:04:04;0.20;99.90
30764;DHT22;17497;51.476;7.770;2023-02-28T01:06:31;0.20;99.90
30764;DHT22;17497;51.476;7.770;2023-02-28T01:08:58;0.20;99.90
30764;DHT22;17497;51.476;7.770;2023-02-28T01:11:25;0.10;99.90
30764;DHT22;17497;51.476;7.770;2023-02-28T01:13:52;0.10;99.90
30764;DHT22;17497;51.476;7.770;2023-02-28T01:16:19;0.10;99.90
30764;DHT22;17497;51.476;7.770;2023-02-28T01:18:45;0.10;99.90
30764;DHT22;17497;51.476;7.770;2023-02-28T01:21:14;0.10;99.90
30764;DHT22;17497;51.476;7.770;2023-02-28T01:23:41;0.10;99.90
30764;DHT22;17497;51.476;7.770;2023-02-28T01:26:09;0.10;99.90
30764;DHT22;17497;51.476;7.770;2023-02-28T01:28:36;0.10;99.90
30764;DHT22;17497;51.476;7.770;2023-02-28T01:31:02;0.10;99.90
30764;DHT22;17497;51.476;7.770;2023-02-28T01:33:29;0.10;99.90
30764;DHT22;17497;51.476;7.770;2023-02-28T01:38:26;0.10;99.90
30764;DHT22;17497;51.476;7.770;2023-02-28T01:40:53;0.00;99.90
30764;DHT22;17497;51.476;7.770;2023-02-28T01:43:26;0.00;99.90
30764;DHT22;17497;51.476;7.770;2023-02-28T01:45:54;0.10;99.90
30764;DHT22;17497;51.476;7.770;2023-02-28T01:48:23;0.10;99.90
30764;DHT22;17497;51.476;7.770;2023-02-28T01:50:52;0.10;99.90
30764;DHT22;17497;51.476;7.770;2023-02-28T01:53:21;0.10;99.90
30764;DHT22;17497;51.476;7.770;2023-02-28T01:55:50;0.10;99.90
30764;DHT22;17497;51.476;7.770;2023-02-28T01:58:18;0.10;99.90
30764;DHT22;17497;51.476;7.770;2023-02-28T02:00:45;0.10;99.90
30764;DHT22;17497;51.476;7.770;2023-02-28T02:03:13;0.10;99.90
30764;DHT22;17497;51.476;7.770;2023-02-28T02:05:42;0.10;99.90
30764;DHT22;17497;51.476;7.770;2023-02-28T02:08:19;0.00;99.90
30764;DHT22;17497;51.476;7.770;2023-02-28T02:10:53;0.00;99.90
30764;DHT22;17497;51.476;7.770;2023-02-28T02:19:14;-0.10;99.90
30764;DHT22;17497;51.476;7.770;2023-02-28T02:26:49;0.00;99.90
30764;DHT22;17497;51.476;7.770;2023-02-28T02:32:16;-0.10;99.90
30764;DHT22;17497;51.476;7.770;2023-02-28T02:37:35;-0.10;99.90
30764;DHT22;17497;51.476;7.770;2023-02-28T02:48:03;-0.20;99.90
30764;DHT22;17497;51.476;7.770;2023-02-28T02:50:31;-0.20;99.90
30764;DHT22;17497;51.476;7.770;2023-02-28T02:53:00;-0.20;99.90
30764;DHT22;17497;51.476;7.770;2023-02-28T02:55:27;-0.20;99.90
30764;DHT22;17497;51.476;7.770;2023-02-28T02:57:56;-0.30;99.90
30764;DHT22;17497;51.476;7.770;2023-02-28T03:00:26;-0.30;99.90
30764;DHT22;17497;51.476;7.770;2023-02-28T03:02:54;-0.30;99.90
30764;DHT22;17497;51.476;7.770;2023-02-28T03:05:25;-0.30;99.90
30764;DHT22;17497;51.476;7.770;2023-02-28T03:07:52;-0.30;99.90
30764;DHT22;17497;51.476;7.770;2023-02-28T03:10:29;-0.40;99.90
30764;DHT22;17497;51.476;7.770;2023-02-28T03:13:11;-0.40;99.90
30764;DHT22;17497;51.476;7.770;2023-02-28T03:23:23;-0.50;99.90
30764;DHT22;17497;51.476;7.770;2023-02-28T03:26:12;-0.60;99.90
30764;DHT22;17497;51.476;7.770;2023-02-28T03:28:51;-0.60;99.90
30764;DHT22;17497;51.476;7.770;2023-02-28T03:31:20;-0.70;99.90
30764;DHT22;17497;51.476;7.770;2023-02-28T03:33:51;-0.70;99.90
30764;DHT22;17497;51.476;7.770;2023-02-28T03:36:22;-0.70;99.90
30764;DHT22;17497;51.476;7.770;2023-02-28T03:38:53;-0.70;99.90
30764;DHT22;17497;51.476;7.770;2023-02-28T03:41:21;-0.60;99.90
30764;DHT22;17497;51.476;7.770;2023-02-28T03:44:05;-0.60;99.90
30764;DHT22;17497;51.476;7.770;2023-02-28T03:46:33;-0.60;99.90
30764;DHT22;17497;51.476;7.770;2023-02-28T03:51:28;-0.60;99.90
30764;DHT22;17497;51.476;7.770;2023-02-28T03:54:04;-0.70;99.90
30764;DHT22;17497;51.476;7.770;2023-02-28T03:56:34;-0.70;99.90
30764;DHT22;17497;51.476;7.770;2023-02-28T03:59:08;-0.70;99.90
30764;DHT22;17497;51.476;7.770;2023-02-28T04:01:44;-0.80;99.90
30764;DHT22;17497;51.476;7.770;2023-02-28T04:04:11;-0.80;99.90
30764;DHT22;17497;51.476;7.770;2023-02-28T04:06:39;-0.80;99.90
30764;DHT22;17497;51.476;7.770;2023-02-28T04:09:06;-0.90;99.90
30764;DHT22;17497;51.476;7.770;2023-02-28T04:11:36;-0.90;99.90
30764;DHT22;17497;51.476;7.770;2023-02-28T04:14:04;-0.90;99.90
30764;DHT22;17497;51.476;7.770;2023-02-28T04:16:32;-0.90;99.90
30764;DHT22;17497;51.476;7.770;2023-02-28T04:19:02;-0.90;99.90
30764;DHT22;17497;51.476;7.770;2023-02-28T04:21:29;-0.90;99.90
30764;DHT22;17497;51.476;7.770;2023-02-28T04:23:56;-0.90;99.90
30764;DHT22;17497;51.476;7.770;2023-02-28T04:26:30;-0.90;99.90
30764;DHT22;17497;51.476;7.770;2023-02-28T04:28:57;-0.90;99.90
30764;DHT22;17497;51.476;7.770;2023-02-28T04:31:24;-0.90;99.90
30764;DHT22;17497;51.476;7.770;2023-02-28T04:33:51;-0.90;99.90
30764;DHT22;17497;51.476;7.770;2023-02-28T04:36:18;-1.00;99.90
30764;DHT22;17497;51.476;7.770;2023-02-28T04:38:45;-1.00;99.90
30764;DHT22;17497;51.476;7.770;2023-02-28T04:41:12;-1.00;99.90
30764;DHT22;17497;51.476;7.770;2023-02-28T04:43:39;-1.10;99.90
30764;DHT22;17497;51.476;7.770;2023-02-28T04:46:06;-1.10;99.90
30764;DHT22;17497;51.476;7.770;2023-02-28T04:48:34;-1.10;99.90
30764;DHT22;17497;51.476;7.770;2023-02-28T04:51:02;-1.00;99.90
30764;DHT22;17497;51.476;7.770;2023-02-28T04:53:29;-1.00;99.90
30764;DHT22;17497;51.476;7.770;2023-02-28T04:55:56;-1.00;99.90
30764;DHT22;17497;51.476;7.770;2023-02-28T04:58:24;-1.00;99.90
30764;DHT22;17497;51.476;7.770;2023-02-28T05:00:51;-1.00;99.90
30764;DHT22;17497;51.476;7.770;2023-02-28T05:03:18;-1.00;99.90
30764;DHT22;17497;51.476;7.770;2023-02-28T05:05:45;-1.00;99.90
30764;DHT22;17497;51.476;7.770;2023-02-28T05:08:12;-1.00;99.90
30764;DHT22;17497;51.476;7.770;2023-02-28T05:10:39;-1.10;99.90
30764;DHT22;17497;51.476;7.770;2023-02-28T05:13:05;-1.10;99.90
30764;DHT22;17497;51.476;7.770;2023-02-28T05:15:32;-1.10;99.90
30764;DHT22;17497;51.476;7.770;2023-02-28T05:18:01;-1.10;99.90
30764;DHT22;17497;51.476;7.770;2023-02-28T05:20:27;-1.10;99.90
30764;DHT22;17497;51.476;7.770;2023-02-28T05:22:54;-1.20;99.90
30764;DHT22;17497;51.476;7.770;2023-02-28T05:25:21;-1.10;99.90
30764;DHT22;17497;51.476;7.770;2023-02-28T05:27:49;-1.20;99.90
30764;DHT22;17497;51.476;7.770;2023-02-28T05:30:15;-1.20;99.90
30764;DHT22;17497;51.476;7.770;2023-02-28T05:32:42;-1.20;99.90
30764;DHT22;17497;51.476;7.770;2023-02-28T05:35:09;-1.20;99.90
30764;DHT22;17497;51.476;7.770;2023-02-28T05:37:37;-1.20;99.90
30764;DHT22;17497;51.476;7.770;2023-02-28T05:40:05;-1.20;99.90
30764;DHT22;17497;51.476;7.770;2023-02-28T05:42:33;-1.30;99.90
30764;DHT22;17497;51.476;7.770;2023-02-28T05:45:00;-1.30;99.90
30764;DHT22;17497;51.476;7.770;2023-02-28T05:47:26;-1.30;99.90
30764;DHT22;17497;51.476;7.770;2023-02-28T05:49:53;-1.30;99.90
30764;DHT22;17497;51.476;7.770;2023-02-28T05:52:19;-1.30;99.90
30764;DHT22;17497;51.476;7.770;2023-02-28T05:54:46;-1.30;99.90
30764;DHT22;17497;51.476;7.770;2023-02-28T05:57:13;-1.30;99.90
30764;DHT22;17497;51.476;7.770;2023-02-28T05:59:49;-1.40;99.90
30764;DHT22;17497;51.476;7.770;2023-02-28T06:02:16;-1.30;99.90
30764;DHT22;17497;51.476;7.770;2023-02-28T06:04:43;-1.30;99.90
30764;DHT22;17497;51.476;7.770;2023-02-28T06:07:10;-1.30;99.90
30764;DHT22;17497;51.476;7.770;2023-02-28T06:09:37;-1.30;99.90
30764;DHT22;17497;51.476;7.770;2023-02-28T06:12:05;-1.40;99.90
30764;DHT22;17497;51.476;7.770;2023-02-28T06:14:33;-1.30;99.90
30764;DHT22;17497;51.476;7.770;2023-02-28T06:17:00;-1.40;99.90
30764;DHT22;17497;51.476;7.770;2023-02-28T06:19:27;-1.50;99.90
30764;DHT22;17497;51.476;7.770;2023-02-28T06:21:55;-1.50;99.90
30764;DHT22;17497;51.476;7.770;2023-02-28T06:24:24;-1.50;99.90
30764;DHT22;17497;51.476;7.770;2023-02-28T06:26:51;-1.40;99.90
30764;DHT22;17497;51.476;7.770;2023-02-28T06:29:17;-1.40;99.90
30764;DHT22;17497;51.476;7.770;2023-02-28T06:31:45;-1.30;99.90
30764;DHT22;17497;51.476;7.770;2023-02-28T06:34:13;-1.30;99.90
30764;DHT22;17497;51.476;7.770;2023-02-28T06:36:41;-1.30;99.90
30764;DHT22;17497;51.476;7.770;2023-02-28T06:39:09;-1.40;99.90
30764;DHT22;17497;51.476;7.770;2023-02-28T06:41:36;-1.40;99.90
30764;DHT22;17497;51.476;7.770;2023-02-28T06:44:19;-1.40;99.90
30764;DHT22;17497;51.476;7.770;2023-02-28T06:46:46;-1.40;99.90
30764;DHT22;17497;51.476;7.770;2023-02-28T06:49:13;-1.40;99.90
30764;DHT22;17497;51.476;7.770;2023-02-28T06:51:41;-1.40;99.90
30764;DHT22;17497;51.476;7.770;2023-02-28T06:54:09;-1.50;99.90
30764;DHT22;17497;51.476;7.770;2023-02-28T06:56:36;-1.40;99.90
30764;DHT22;17497;51.476;7.770;2023-02-28T06:59:03;-1.40;99.90
30764;DHT22;17497;51.476;7.770;2023-02-28T07:01:30;-1.50;99.90
30764;DHT22;17497;51.476;7.770;2023-02-28T07:03:59;-1.20;99.90
30764;DHT22;17497;51.476;7.770;2023-02-28T07:06:26;-1.20;99.90
30764;DHT22;17497;51.476;7.770;2023-02-28T07:08:53;-1.10;99.90
30764;DHT22;17497;51.476;7.770;2023-02-28T07:11:21;-0.90;99.90
30764;DHT22;17497;51.476;7.770;2023-02-28T07:13:49;-0.70;99.90
30764;DHT22;17497;51.476;7.770;2023-02-28T07:16:17;-0.70;99.90
30764;DHT22;17497;51.476;7.770;2023-02-28T07:18:44;-0.60;99.90
30764;DHT22;17497;51.476;7.770;2023-02-28T07:21:11;-0.30;99.90
30764;DHT22;17497;51.476;7.770;2023-02-28T07:23:38;-0.30;99.90
30764;DHT22;17497;51.476;7.770;2023-02-28T07:26:05;-0.30;99.90
30764;DHT22;17497;51.476;7.770;2023-02-28T07:28:33;-0.40;99.90
30764;DHT22;17497;51.476;7.770;2023-02-28T07:31:03;-0.30;99.90
30764;DHT22;17497;51.476;7.770;2023-02-28T07:33:31;-0.20;99.90
30764;DHT22;17497;51.476;7.770;2023-02-28T07:36:01;-0.10;99.90
30764;DHT22;17497;51.476;7.770;2023-02-28T07:38:28;-0.10;99.90
30764;DHT22;17497;51.476;7.770;2023-02-28T07:40:55;0.00;99.90
30764;DHT22;17497;51.476;7.770;2023-02-28T07:43:22;0.10;99.90
30764;DHT22;17497;51.476;7.770;2023-02-28T07:45:48;0.00;99.90
30764;DHT22;17497;51.476;7.770;2023-02-28T07:48:15;0.10;99.90
30764;DHT22;17497;51.476;7.770;2023-02-28T07:50:42;0.20;99.90
30764;DHT22;17497;51.476;7.770;2023-02-28T07:53:09;0.20;99.90
30764;DHT22;17497;51.476;7.770;2023-02-28T07:55:35;0.30;99.90
30764;DHT22;17497;51.476;7.770;2023-02-28T07:58:02;0.50;99.90
30764;DHT22;17497;51.476;7.770;2023-02-28T08:00:29;0.50;99.90
30764;DHT22;17497;51.476;7.770;2023-02-28T08:02:58;0.50;99.90
30764;DHT22;17497;51.476;7.770;2023-02-28T08:05:24;0.40;99.90
30764;DHT22;17497;51.476;7.770;2023-02-28T08:07:51;0.50;99.90
30764;DHT22;17497;51.476;7.770;2023-02-28T08:10:19;0.40;99.90
30764;DHT22;17497;51.476;7.770;2023-02-28T08:12:46;0.40;99.90
30764;DHT22;17497;51.476;7.770;2023-02-28T08:15:13;0.50;99.90
30764;DHT22;17497;51.476;7.770;2023-02-28T08:17:40;0.60;99.90
30764;DHT22;17497;51.476;7.770;2023-02-28T08:20:07;0.70;99.90
30764;DHT22;17497;51.476;7.770;2023-02-28T08:22:33;0.80;99.90
30764;DHT22;17497;51.476;7.770;2023-02-28T08:25:00;1.00;99.90
30764;DHT22;17497;51.476;7.770;2023-02-28T08:27:27;1.00;99.90
30764;DHT22;17497;51.476;7.770;2023-02-28T08:29:54;0.90;99.90
30764;DHT22;17497;51.476;7.770;2023-02-28T08:32:20;0.80;99.90
30764;DHT22;17497;51.476;7.770;2023-02-28T08:34:56;0.80;99.90
30764;DHT22;17497;51.476;7.770;2023-02-28T08:37:23;0.80;99.90
30764;DHT22;17497;51.476;7.770;2023-02-28T08:39:49;0.70;99.90
30764;DHT22;17497;51.476;7.770;2023-02-28T08:42:18;0.60;99.90
30764;DHT22;17497;51.476;7.770;2023-02-28T08:44:48;0.70;99.90
30764;DHT22;17497;51.476;7.770;2023-02-28T08:47:17;0.70;99.90
30764;DHT22;17497;51.476;7.770;2023-02-28T08:49:44;0.70;99.90
30764;DHT22;17497;51.476;7.770;2023-02-28T08:52:11;0.90;99.90
30764;DHT22;17497;51.476;7.770;2023-02-28T08:54:38;1.00;99.90
30764;DHT22;17497;51.476;7.770;2023-02-28T08:57:04;1.10;99.90
30764;DHT22;17497;51.476;7.770;2023-02-28T08:59:31;1.30;99.90
30764;DHT22;17497;51.476;7.770;2023-02-28T09:01:58;1.30;99.90
30764;DHT22;17497;51.476;7.770;2023-02-28T09:04:24;1.40;99.90
30764;DHT22;17497;51.476;7.770;2023-02-28T09:06:51;1.60;99.90
30764;DHT22;17497;51.476;7.770;2023-02-28T09:09:18;1.70;99.90
30764;DHT22;17497;51.476;7.770;2023-02-28T09:11:45;1.90;99.90
30764;DHT22;17497;51.476;7.770;2023-02-28T09:14:12;1.90;99.90
30764;DHT22;17497;51.476;7.770;2023-02-28T09:16:38;2.10;99.90
30764;DHT22;17497;51.476;7.770;2023-02-28T09:19:05;2.20;99.90
30764;DHT22;17497;51.476;7.770;2023-02-28T09:21:32;2.20;99.90
30764;DHT22;17497;51.476;7.770;2023-02-28T09:23:58;2.20;99.90
30764;DHT22;17497;51.476;7.770;2023-02-28T09:26:26;2.50;99.90
30764;DHT22;17497;51.476;7.770;2023-02-28T09:29:00;2.60;99.90
30764;DHT22;17497;51.476;7.770;2023-02-28T09:31:27;2.50;99.90
30764;DHT22;17497;51.476;7.770;2023-02-28T09:33:55;2.60;99.90
30764;DHT22;17497;51.476;7.770;2023-02-28T09:36:23;2.70;99.90
30764;DHT22;17497;51.476;7.770;2023-02-28T09:38:56;2.90;99.90
30764;DHT22;17497;51.476;7.770;2023-02-28T09:41:24;3.00;99.90
30764;DHT22;17497;51.476;7.770;2023-02-28T09:43:53;3.10;99.90
30764;DHT22;17497;51.476;7.770;2023-02-28T09:48:47;3.20;99.90
30764;DHT22;17497;51.476;7.770;2023-02-28T09:53:47;3.20;99.90
30764;DHT22;17497;51.476;7.770;2023-02-28T09:56:26;3.10;99.90
30764;DHT22;17497;51.476;7.770;2023-02-28T09:58:55;3.30;99.90
30764;DHT22;17497;51.476;7.770;2023-02-28T10:04:16;3.60;99.90
30764;DHT22;17497;51.476;7.770;2023-02-28T10:06:51;3.80;99.90
30764;DHT22;17497;51.476;7.770;2023-02-28T10:09:26;3.90;99.90
30764;DHT22;17497;51.476;7.770;2023-02-28T10:11:54;3.90;99.90
30764;DHT22;17497;51.476;7.770;2023-02-28T10:14:25;3.90;99.90
30764;DHT22;17497;51.476;7.770;2023-02-28T10:17:11;4.10;99.90
30764;DHT22;17497;51.476;7.770;2023-02-28T10:24:40;4.80;99.90
30764;DHT22;17497;51.476;7.770;2023-02-28T10:27:21;5.10;99.90
30764;DHT22;17497;51.476;7.770;2023-02-28T10:29:53;5.40;99.90
30764;DHT22;17497;51.476;7.770;2023-02-28T10:32:21;5.80;99.90
30764;DHT22;17497;51.476;7.770;2023-02-28T10:34:51;5.90;99.90
30764;DHT22;17497;51.476;7.770;2023-02-28T10:37:18;5.60;99.90
30764;DHT22;17497;51.476;7.770;2023-02-28T10:39:46;5.40;99.90
30764;DHT22;17497;51.476;7.770;2023-02-28T10:42:20;5.40;99.90
30764;DHT22;17497;51.476;7.770;2023-02-28T10:44:47;5.40;99.90
30764;DHT22;17497;51.476;7.770;2023-02-28T10:47:14;5.20;99.90
30764;DHT22;17497;51.476;7.770;2023-02-28T10:49:46;5.70;99.90
30764;DHT22;17497;51.476;7.770;2023-02-28T10:52:13;6.20;99.90
30764;DHT22;17497;51.476;7.770;2023-02-28T10:54:40;6.20;99.90
30764;DHT22;17497;51.476;7.770;2023-02-28T10:57:08;6.40;99.90
30764;DHT22;17497;51.476;7.770;2023-02-28T10:59:36;6.60;99.90
30764;DHT22;17497;51.476;7.770;2023-02-28T11:02:07;7.10;99.90
30764;DHT22;17497;51.476;7.770;2023-02-28T11:04:49;7.10;99.90
30764;DHT22;17497;51.476;7.770;2023-02-28T11:07:17;7.00;99.90
30764;DHT22;17497;51.476;7.770;2023-02-28T11:09:50;7.30;99.90
30764;DHT22;17497;51.476;7.770;2023-02-28T11:14:54;8.10;99.90
30764;DHT22;17497;51.476;7.770;2023-02-28T11:17:26;8.00;99.80
30764;DHT22;17497;51.476;7.770;2023-02-28T11:19:55;8.60;99.10
30764;DHT22;17497;51.476;7.770;2023-02-28T11:22:23;9.20;96.70
30764;DHT22;17497;51.476;7.770;2023-02-28T11:24:52;9.60;97.00
30764;DHT22;17497;51.476;7.770;2023-02-28T11:29:56;9.00;95.20
30764;DHT22;17497;51.476;7.770;2023-02-28T11:32:23;9.70;94.50
30764;DHT22;17497;51.476;7.770;2023-02-28T11:37:38;9.70;92.80
30764;DHT22;17497;51.476;7.770;2023-02-28T11:40:18;9.50;94.00
30764;DHT22;17497;51.476;7.770;2023-02-28T11:56:22;11.90;82.20
30764;DHT22;17497;51.476;7.770;2023-02-28T12:16:44;12.20;73.20
30764;DHT22;17497;51.476;7.770;2023-02-28T12:19:17;11.70;74.70
30764;DHT22;17497;51.476;7.770;2023-02-28T12:21:48;12.20;74.50
30764;DHT22;17497;51.476;7.770;2023-02-28T12:24:30;12.60;73.60
30764;DHT22;17497;51.476;7.770;2023-02-28T12:27:05;12.60;73.80
30764;DHT22;17497;51.476;7.770;2023-02-28T12:29:40;11.80;75.70
30764;DHT22;17497;51.476;7.770;2023-02-28T12:32:11;12.10;74.30
30764;DHT22;17497;51.476;7.770;2023-02-28T12:34:41;11.80;74.60
30764;DHT22;17497;51.476;7.770;2023-02-28T12:37:44;12.20;75.60
30764;DHT22;17497;51.476;7.770;2023-02-28T12:40:05;12.30;72.90
30764;DHT22;17497;51.476;7.770;2023-02-28T12:42:36;11.60;77.30
30764;DHT22;17497;51.476;7.770;2023-02-28T12:45:08;11.40;75.80
30764;DHT22;17497;51.476;7.770;2023-02-28T12:47:37;11.70;74.10
30764;DHT22;17497;51.476;7.770;2023-02-28T12:50:06;11.90;79.30
30764;DHT22;17497;51.476;7.770;2023-02-28T12:58:10;11.80;70.40
30764;DHT22;17497;51.476;7.770;2023-02-28T13:00:32;11.70;72.10
30764;DHT22;17497;51.476;7.770;2023-02-28T13:03:06;11.50;72.90
30764;DHT22;17497;51.476;7.770;2023-02-28T13:05:45;11.70;73.10
30764;DHT22;17497;51.476;7.770;2023-02-28T13:10:46;13.20;64.10
30764;DHT22;17497;51.476;7.770;2023-02-28T13:13:20;13.70;69.40
30764;DHT22;17497;51.476;7.770;2023-02-28T13:18:27;14.70;64.00
30764;DHT22;17497;51.476;7.770;2023-02-28T13:20:55;15.50;65.00
30764;DHT22;17497;51.476;7.770;2023-02-28T13:23:55;16.20;57.00
30764;DHT22;17497;51.476;7.770;2023-02-28T13:34:22;13.90;58.70
30764;DHT22;17497;51.476;7.770;2023-02-28T13:36:49;13.90;59.50
30764;DHT22;17497;51.476;7.770;2023-02-28T13:55:31;15.60;55.30
30764;DHT22;17497;51.476;7.770;2023-02-28T14:03:32;16.90;52.60
30764;DHT22;17497;51.476;7.770;2023-02-28T14:06:23;16.40;51.50
30764;DHT22;17497;51.476;7.770;2023-02-28T14:11:33;14.50;55.90
30764;DHT22;17497;51.476;7.770;2023-02-28T14:14:00;14.90;56.00
30764;DHT22;17497;51.476;7.770;2023-02-28T14:16:28;15.10;56.50
30764;DHT22;17497;51.476;7.770;2023-02-28T14:19:02;15.10;57.20
30764;DHT22;17497;51.476;7.770;2023-02-28T14:21:34;15.40;55.20
30764;DHT22;17497;51.476;7.770;2023-02-28T14:32:44;16.20;54.10
30764;DHT22;17497;51.476;7.770;2023-02-28T14:34:51;15.60;54.50
30764;DHT22;17497;51.476;7.770;2023-02-28T14:37:20;15.50;53.80
30764;DHT22;17497;51.476;7.770;2023-02-28T14:39:51;15.20;55.10
30764;DHT22;17497;51.476;7.770;2023-02-28T14:44:57;15.00;55.40
30764;DHT22;17497;51.476;7.770;2023-02-28T14:47:25;14.90;55.30
30764;DHT22;17497;51.476;7.770;2023-02-28T14:49:54;15.00;55.20
30764;DHT22;17497;51.476;7.770;2023-02-28T14:52:22;14.60;55.00
30764;DHT22;17497;51.476;7.770;2023-02-28T14:54:59;15.00;55.30
30764;DHT22;17497;51.476;7.770;2023-02-28T14:57:29;14.90;55.00
30764;DHT22;17497;51.476;7.770;2023-02-28T15:00:00;15.30;54.20
30764;DHT22;17497;51.476;7.770;2023-02-28T15:02:33;15.70;54.50
30764;DHT22;17497;51.476;7.770;2023-02-28T15:05:01;15.00;53.50
30764;DHT22;17497;51.476;7.770;2023-02-28T15:07:28;15.10;55.10
30764;DHT22;17497;51.476;7.770;2023-02-28T15:12:41;14.90;54.20
30764;DHT22;17497;51.476;7.770;2023-02-28T15:15:15;14.80;53.70
30764;DHT22;17497;51.476;7.770;2023-02-28T15:17:45;13.60;56.70
30764;DHT22;17497;51.476;7.770;2023-02-28T15:20:13;13.20;57.30
30764;DHT22;17497;51.476;7.770;2023-02-28T15:22:41;11.60;61.90
30764;DHT22;17497;51.476;7.770;2023-02-28T15:25:09;11.70;61.90
30764;DHT22;17497;51.476;7.770;2023-02-28T15:27:40;11.40;62.20
30764;DHT22;17497;51.476;7.770;2023-02-28T15:30:11;11.50;63.60
30764;DHT22;17497;51.476;7.770;2023-02-28T15:32:41;12.20;61.90
30764;DHT22;17497;51.476;7.770;2023-02-28T15:35:18;12.60;60.70
30764;DHT22;17497;51.476;7.770;2023-02-28T15:37:47;12.80;59.20
30764;DHT22;17497;51.476;7.770;2023-02-28T15:42:40;13.10;58.50
30764;DHT22;17497;51.476;7.770;2023-02-28T15:45:26;13.80;57.40
30764;DHT22;17497;51.476;7.770;2023-02-28T15:47:53;14.20;57.30
30764;DHT22;17497;51.476;7.770;2023-02-28T15:50:21;15.00;55.70
30764;DHT22;17497;51.476;7.770;2023-02-28T15:52:48;14.60;55.90
30764;DHT22;17497;51.476;7.770;2023-02-28T15:55:19;13.60;58.00
30764;DHT22;17497;51.476;7.770;2023-02-28T15:57:48;13.90;57.10
30764;DHT22;17497;51.476;7.770;2023-02-28T16:00:18;13.20;57.40
30764;DHT22;17497;51.476;7.770;2023-02-28T16:02:45;12.80;59.10
30764;DHT22;17497;51.476;7.770;2023-02-28T16:08:17;11.90;61.00
30764;DHT22;17497;51.476;7.770;2023-02-28T16:10:44;11.50;62.50
30764;DHT22;17497;51.476;7.770;2023-02-28T16:13:11;11.50;62.20
30764;DHT22;17497;51.476;7.770;2023-02-28T16:15:41;11.50;62.70
30764;DHT22;17497;51.476;7.770;2023-02-28T16:18:12;11.10;65.10
30764;DHT22;17497;51.476;7.770;2023-02-28T16:20:39;11.00;65.90
30764;DHT22;17497;51.476;7.770;2023-02-28T16:23:07;10.60;66.10
30764;DHT22;17497;51.476;7.770;2023-02-28T16:25:38;10.50;66.20
30764;DHT22;17497;51.476;7.770;2023-02-28T16:28:25;10.00;67.90
30764;DHT22;17497;51.476;7.770;2023-02-28T16:31:01;9.20;69.40
30764;DHT22;17497;51.476;7.770;2023-02-28T16:33:29;8.70;72.40
30764;DHT22;17497;51.476;7.770;2023-02-28T16:35:56;8.40;73.90
30764;DHT22;17497;51.476;7.770;2023-02-28T16:38:23;7.90;77.40
30764;DHT22;17497;51.476;7.770;2023-02-28T16:40:51;7.40;78.50
30764;DHT22;17497;51.476;7.770;2023-02-28T16:43:20;7.00;81.50
30764;DHT22;17497;51.476;7.770;2023-02-28T16:45:49;6.70;82.90
30764;DHT22;17497;51.476;7.770;2023-02-28T16:48:21;6.40;85.20
30764;DHT22;17497;51.476;7.770;2023-02-28T16:50:49;6.10;86.40
30764;DHT22;17497;51.476;7.770;2023-02-28T16:53:16;6.00;88.30
30764;DHT22;17497;51.476;7.770;2023-02-28T16:55:46;5.80;89.90
30764;DHT22;17497;51.476;7.770;2023-02-28T16:58:14;5.70;90.50
30764;DHT22;17497;51.476;7.770;2023-02-28T17:00:42;5.50;91.30
30764;DHT22;17497;51.476;7.770;2023-02-28T17:03:28;5.50;91.40
30764;DHT22;17497;51.476;7.770;2023-02-28T17:06:00;5.40;92.30
30764;DHT22;17497;51.476;7.770;2023-02-28T17:08:27;5.40;92.10
30764;DHT22;17497;51.476;7.770;2023-02-28T17:10:55;5.30;92.90
30764;DHT22;17497;51.476;7.770;2023-02-28T17:13:22;5.20;93.30
30764;DHT22;17497;51.476;7.770;2023-02-28T17:15:49;5.10;94.10
30764;DHT22;17497;51.476;7.770;2023-02-28T17:18:18;4.90;96.30
30764;DHT22;17497;51.476;7.770;2023-02-28T17:20:48;4.90;96.60
30764;DHT22;17497;51.476;7.770;2023-02-28T17:23:14;4.80;96.80
30764;DHT22;17497;51.476;7.770;2023-02-28T17:25:42;4.70;97.60
30764;DHT22;17497;51.476;7.770;2023-02-28T17:28:22;4.60;97.80
30764;DHT22;17497;51.476;7.770;2023-02-28T17:30:49;4.50;99.10
30764;DHT22;17497;51.476;7.770;2023-02-28T17:33:16;4.40;99.90
30764;DHT22;17497;51.476;7.770;2023-02-28T17:35:42;4.40;99.90
30764;DHT22;17497;51.476;7.770;2023-02-28T17:38:13;4.30;99.90
30764;DHT22;17497;51.476;7.770;2023-02-28T17:40:46;4.20;99.90
30764;DHT22;17497;51.476;7.770;2023-02-28T17:43:13;4.20;99.90
30764;DHT22;17497;51.476;7.770;2023-02-28T17:45:41;4.20;99.90
30764;DHT22;17497;51.476;7.770;2023-02-28T17:48:09;4.10;99.90
30764;DHT22;17497;51.476;7.770;2023-02-28T17:50:36;4.10;99.90
30764;DHT22;17497;51.476;7.770;2023-02-28T17:53:02;4.00;99.90
30764;DHT22;17497;51.476;7.770;2023-02-28T17:55:29;4.10;99.90
30764;DHT22;17497;51.476;7.770;2023-02-28T17:57:56;4.00;99.90
30764;DHT22;17497;51.476;7.770;2023-02-28T18:00:23;4.00;99.90
30764;DHT22;17497;51.476;7.770;2023-02-28T18:02:50;4.00;99.90
30764;DHT22;17497;51.476;7.770;2023-02-28T18:05:17;4.00;99.90
30764;DHT22;17497;51.476;7.770;2023-02-28T18:07:45;4.00;99.90
30764;DHT22;17497;51.476;7.770;2023-02-28T18:10:14;3.90;99.90
30764;DHT22;17497;51.476;7.770;2023-02-28T18:12:42;3.80;99.90
30764;DHT22;17497;51.476;7.770;2023-02-28T18:15:09;3.70;99.90
30764;DHT22;17497;51.476;7.770;2023-02-28T18:17:36;3.70;99.90
30764;DHT22;17497;51.476;7.770;2023-02-28T18:20:03;3.70;99.90